Katlin Olivia — WCY6622 — position and weather

sailwx.info

Track history (hours):
 
Tides and Currents Weather Stations Pressure Air Temp Water Temp Dewpoint Dewpoint Depression Visibility Wind Speed Wind Dir Waves Ship Positions

Katlin Olivia

Owner: LA CARRIERS, INC., CUT OFF, LA. More information available from US FCC via Universal Licensing System and Coast Guard Vessel Documentation Center.

Last reported at 2017-Nov-17 23:46 UTC. Time now 2017-Nov-19 21:50 UTC.
Position N 27°43' W 082°32'.

; draft 3 m.

Type: Towing. MMSI: 367005970.

Date/timePositionNaut miles runAvg speedWind from/ knotsBaromVisibWave heightAir tempDewpointWater temp
2017-Nov-17 23:46N 27°43' W 082°32'1 5.6
2017-Nov-17 23:30N 27°44' W 082°32'3 5.4
2017-Nov-17 23:00N 27°47' W 082°31'1 1.6
2017-Nov-17 22:30N 27°48' W 082°31'2 4.4
2017-Nov-17 22:00N 27°48' W 082°28'2 4.7
2017-Nov-17 21:30N 27°50' W 082°27'3 5.2
2017-Nov-17 21:00N 27°53' W 082°26'2 3.9
2017-Nov-17 20:31N 27°54' W 082°26'0 0.2
2017-Nov-17 20:00N 27°54' W 082°26'0 0.1
2017-Nov-17 19:30N 27°54' W 082°26'0 0.2
2017-Nov-17 19:00N 27°54' W 082°26'0 0.0
2017-Nov-17 18:30N 27°54' W 082°26'0 0.0
2017-Nov-17 18:00N 27°54' W 082°26'1 1.4
2017-Nov-17 17:30N 27°55' W 082°25'1 1.3
2017-Nov-17 17:00N 27°56' W 082°26'0 0.0
2017-Nov-17 16:31N 27°56' W 082°26'1 2.6
2017-Nov-17 16:00N 27°54' W 082°26'0 0.0
2017-Nov-17 15:30N 27°54' W 082°26'0 0.0
2017-Nov-17 15:00N 27°54' W 082°26'0 0.0
2017-Nov-17 14:30N 27°54' W 082°26'0 0.0
2017-Nov-17 14:00N 27°54' W 082°26'0 0.0
2017-Nov-17 13:30N 27°54' W 082°26'0 0.1
2017-Nov-17 13:00N 27°54' W 082°26'0 0.1
2017-Nov-17 12:30N 27°54' W 082°26'0 0.1
2017-Nov-17 12:00N 27°54' W 082°26'0 0.1
2017-Nov-17 11:30N 27°54' W 082°26'0 0.0
2017-Nov-17 11:00N 27°54' W 082°26'0 0.0
2017-Nov-17 10:30N 27°54' W 082°26'0 0.0
2017-Nov-17 10:00N 27°54' W 082°26'0 0.0
2017-Nov-17 09:30N 27°54' W 082°26'0 0.0
2017-Nov-17 09:00N 27°54' W 082°26'0 0.0
2017-Nov-17 08:30N 27°54' W 082°26'0 0.0
2017-Nov-17 08:01N 27°54' W 082°26'0 0.0
2017-Nov-17 07:30N 27°54' W 082°26'0 0.0
2017-Nov-17 07:00N 27°54' W 082°26'0 0.0
2017-Nov-17 06:30N 27°54' W 082°26'0 0.0
2017-Nov-17 06:01N 27°54' W 082°26'0 0.0
2017-Nov-17 05:30N 27°54' W 082°26'0 0.0
2017-Nov-17 05:00N 27°54' W 082°26'0 0.0
2017-Nov-17 04:30N 27°54' W 082°26'0 0.0
2017-Nov-17 04:00N 27°54' W 082°26'0 0.0
2017-Nov-17 03:30N 27°54' W 082°26'0 0.0
2017-Nov-17 03:01N 27°54' W 082°26'0 0.0
2017-Nov-17 02:30N 27°54' W 082°26'0 0.0
2017-Nov-17 02:00N 27°54' W 082°26'0 0.0
2017-Nov-17 01:31N 27°54' W 082°26'0 0.0
2017-Nov-17 01:00N 27°54' W 082°26'0 0.0
2017-Nov-17 00:30N 27°54' W 082°26'0 0.1
2017-Nov-17 00:01N 27°54' W 082°26'2 4.3
2017-Nov-16 23:30N 27°52' W 082°27'4 5.6
2017-Nov-16 22:52N 27°49' W 082°27'2 5.3
2017-Nov-16 22:30N 27°48' W 082°29'3 5.0
2017-Nov-16 21:58N 27°47' W 082°32'  
2017-Nov-11 00:34N 27°43' W 082°33'1 4.2
2017-Nov-11 00:15N 27°44' W 082°32'1 4.0
2017-Nov-11 00:00N 27°45' W 082°32'2 4.2
2017-Nov-10 23:30N 27°47' W 082°31'2 4.8
2017-Nov-10 23:00N 27°48' W 082°29'2 4.6
2017-Nov-10 22:30N 27°49' W 082°27'2 4.9
2017-Nov-10 22:00N 27°52' W 082°27'2 4.8
2017-Nov-10 21:30N 27°54' W 082°26'1 1.2
2017-Nov-10 21:00N 27°54' W 082°26'0 0.1
2017-Nov-10 20:30N 27°54' W 082°26'0 0.0
2017-Nov-10 20:00N 27°54' W 082°26'0 0.1
2017-Nov-10 19:30N 27°54' W 082°26'0 0.0
2017-Nov-10 19:01N 27°54' W 082°26'0 0.0
2017-Nov-10 18:31N 27°54' W 082°26'0 0.0
2017-Nov-10 18:00N 27°54' W 082°26'0 0.0
2017-Nov-10 17:30N 27°54' W 082°26'0 0.1
2017-Nov-10 17:00N 27°54' W 082°26'0 0.0
2017-Nov-10 16:30N 27°54' W 082°26'0 0.1
2017-Nov-10 16:00N 27°54' W 082°26'0 0.0
2017-Nov-10 15:31N 27°54' W 082°26'0 0.0
2017-Nov-10 15:00N 27°54' W 082°26'0 0.0
2017-Nov-10 13:40N 27°54' W 082°26'0 0.0
2017-Nov-10 13:31N 27°54' W 082°26'0 0.0
2017-Nov-10 13:01N 27°54' W 082°26'0 0.0
2017-Nov-10 12:30N 27°54' W 082°26'0 0.0
2017-Nov-10 12:00N 27°54' W 082°26'0 0.0
2017-Nov-10 11:30N 27°54' W 082°26'0 0.0
2017-Nov-10 11:00N 27°54' W 082°26'0 0.0
2017-Nov-10 10:30N 27°54' W 082°26'0 0.0
2017-Nov-10 10:00N 27°54' W 082°26'0 0.0
2017-Nov-10 09:30N 27°54' W 082°26'0 0.0
2017-Nov-10 09:00N 27°54' W 082°26'0 0.0
2017-Nov-10 08:31N 27°54' W 082°26'0 0.0
2017-Nov-10 08:00N 27°54' W 082°26'0 0.0
2017-Nov-10 07:30N 27°54' W 082°26'0 0.0
2017-Nov-10 07:01N 27°54' W 082°26'0 0.0
2017-Nov-10 06:30N 27°54' W 082°26'0 0.0
2017-Nov-10 06:00N 27°54' W 082°26'0 0.0
2017-Nov-10 05:30N 27°54' W 082°26'0 0.0
2017-Nov-10 05:01N 27°54' W 082°26'0 0.0
2017-Nov-10 04:30N 27°54' W 082°26'0 0.0
2017-Nov-10 04:00N 27°54' W 082°26'0 0.0
2017-Nov-10 03:30N 27°54' W 082°26'0 0.0
2017-Nov-10 03:01N 27°54' W 082°26'0 0.1
2017-Nov-10 02:31N 27°54' W 082°26'0 0.0
2017-Nov-10 02:00N 27°54' W 082°26'1 1.5
2017-Nov-10 01:30N 27°54' W 082°26'4 6.2
2017-Nov-10 00:52N 27°50' W 082°27'1 0.1
2017-Nov-09 10:11N 27°49' W 082°26'1 6.8
2017-Nov-09 09:59N 27°50' W 082°27'1 2.2
2017-Nov-09 09:30N 27°51' W 082°27'3 6.3
2017-Nov-09 09:00N 27°54' W 082°26'1 1.2
2017-Nov-09 08:30N 27°54' W 082°26'3 5.3
2017-Nov-09 08:00N 27°52' W 082°27'1 2.5
2017-Nov-09 07:30N 27°51' W 082°26'0 0.2
2017-Nov-09 07:00N 27°51' W 082°26'2 3.1
2017-Nov-09 06:30N 27°52' W 082°27'2 4.6
2017-Nov-09 06:01N 27°54' W 082°26'3 5.2
2017-Nov-09 05:30N 27°52' W 082°27'1 2.7
2017-Nov-09 05:01N 27°51' W 082°26'1 1.5
2017-Nov-09 04:30N 27°51' W 082°27'3 5.7
2017-Nov-09 04:00N 27°54' W 082°26'1 1.3
2017-Nov-09 03:30N 27°54' W 082°26'1 1.7
2017-Nov-09 03:00N 27°54' W 082°26'3 6.0
2017-Nov-09 02:30N 27°51' W 082°27'0 0.2
2017-Nov-09 02:00N 27°51' W 082°27'3 5.2
2017-Nov-09 01:30N 27°53' W 082°26'1 2.6
2017-Nov-09 01:00N 27°54' W 082°26'0 0.2
2017-Nov-09 00:31N 27°54' W 082°26'2 3.1
2017-Nov-09 00:00N 27°53' W 082°26'4 7.6
2017-Nov-08 23:26N 27°49' W 082°27'1 0.5
2017-Nov-08 22:00N 27°49' W 082°26'3 4.9
2017-Nov-08 21:29N 27°48' W 082°29'  
Track history (hours):
 
Tides and Currents Weather Stations Pressure Air Temp Water Temp Dewpoint Dewpoint Depression Visibility Wind Speed Wind Dir Waves Ship Positions

Katlin Olivia

Owner: LA CARRIERS, INC., CUT OFF, LA. More information available from US FCC via Universal Licensing System and Coast Guard Vessel Documentation Center.

Last reported at 2017-Nov-17 23:46 UTC. Time now 2017-Nov-19 21:50 UTC.
Position N 27°43' W 082°32'.

; draft 3 m.

Type: Towing. MMSI: 367005970.

Date/timePositionNaut miles runAvg speedWind from/ knotsBaromVisibWave heightAir tempDewpointWater temp
2017-Nov-17 23:46N 27°43' W 082°32'1 5.6
2017-Nov-17 23:30N 27°44' W 082°32'3 5.4
2017-Nov-17 23:00N 27°47' W 082°31'1 1.6
2017-Nov-17 22:30N 27°48' W 082°31'2 4.4
2017-Nov-17 22:00N 27°48' W 082°28'2 4.7
2017-Nov-17 21:30N 27°50' W 082°27'3 5.2
2017-Nov-17 21:00N 27°53' W 082°26'2 3.9
2017-Nov-17 20:31N 27°54' W 082°26'0 0.2
2017-Nov-17 20:00N 27°54' W 082°26'0 0.1
2017-Nov-17 19:30N 27°54' W 082°26'0 0.2
2017-Nov-17 19:00N 27°54' W 082°26'0 0.0
2017-Nov-17 18:30N 27°54' W 082°26'0 0.0
2017-Nov-17 18:00N 27°54' W 082°26'1 1.4
2017-Nov-17 17:30N 27°55' W 082°25'1 1.3
2017-Nov-17 17:00N 27°56' W 082°26'0 0.0
2017-Nov-17 16:31N 27°56' W 082°26'1 2.6
2017-Nov-17 16:00N 27°54' W 082°26'0 0.0
2017-Nov-17 15:30N 27°54' W 082°26'0 0.0
2017-Nov-17 15:00N 27°54' W 082°26'0 0.0
2017-Nov-17 14:30N 27°54' W 082°26'0 0.0
2017-Nov-17 14:00N 27°54' W 082°26'0 0.0
2017-Nov-17 13:30N 27°54' W 082°26'0 0.1
2017-Nov-17 13:00N 27°54' W 082°26'0 0.1
2017-Nov-17 12:30N 27°54' W 082°26'0 0.1
2017-Nov-17 12:00N 27°54' W 082°26'0 0.1
2017-Nov-17 11:30N 27°54' W 082°26'0 0.0
2017-Nov-17 11:00N 27°54' W 082°26'0 0.0
2017-Nov-17 10:30N 27°54' W 082°26'0 0.0
2017-Nov-17 10:00N 27°54' W 082°26'0 0.0
2017-Nov-17 09:30N 27°54' W 082°26'0 0.0
2017-Nov-17 09:00N 27°54' W 082°26'0 0.0
2017-Nov-17 08:30N 27°54' W 082°26'0 0.0
2017-Nov-17 08:01N 27°54' W 082°26'0 0.0
2017-Nov-17 07:30N 27°54' W 082°26'0 0.0
2017-Nov-17 07:00N 27°54' W 082°26'0 0.0
2017-Nov-17 06:30N 27°54' W 082°26'0 0.0
2017-Nov-17 06:01N 27°54' W 082°26'0 0.0
2017-Nov-17 05:30N 27°54' W 082°26'0 0.0
2017-Nov-17 05:00N 27°54' W 082°26'0 0.0
2017-Nov-17 04:30N 27°54' W 082°26'0 0.0
2017-Nov-17 04:00N 27°54' W 082°26'0 0.0
2017-Nov-17 03:30N 27°54' W 082°26'0 0.0
2017-Nov-17 03:01N 27°54' W 082°26'0 0.0
2017-Nov-17 02:30N 27°54' W 082°26'0 0.0
2017-Nov-17 02:00N 27°54' W 082°26'0 0.0
2017-Nov-17 01:31N 27°54' W 082°26'0 0.0
2017-Nov-17 01:00N 27°54' W 082°26'0 0.0
2017-Nov-17 00:30N 27°54' W 082°26'0 0.1
2017-Nov-17 00:01N 27°54' W 082°26'2 4.3
2017-Nov-16 23:30N 27°52' W 082°27'4 5.6
2017-Nov-16 22:52N 27°49' W 082°27'2 5.3
2017-Nov-16 22:30N 27°48' W 082°29'3 5.0
2017-Nov-16 21:58N 27°47' W 082°32'  
2017-Nov-11 00:34N 27°43' W 082°33'1 4.2
2017-Nov-11 00:15N 27°44' W 082°32'1 4.0
2017-Nov-11 00:00N 27°45' W 082°32'2 4.2
2017-Nov-10 23:30N 27°47' W 082°31'2 4.8
2017-Nov-10 23:00N 27°48' W 082°29'2 4.6
2017-Nov-10 22:30N 27°49' W 082°27'2 4.9
2017-Nov-10 22:00N 27°52' W 082°27'2 4.8
2017-Nov-10 21:30N 27°54' W 082°26'1 1.2
2017-Nov-10 21:00N 27°54' W 082°26'0 0.1
2017-Nov-10 20:30N 27°54' W 082°26'0 0.0
2017-Nov-10 20:00N 27°54' W 082°26'0 0.1
2017-Nov-10 19:30N 27°54' W 082°26'0 0.0
2017-Nov-10 19:01N 27°54' W 082°26'0 0.0
2017-Nov-10 18:31N 27°54' W 082°26'0 0.0
2017-Nov-10 18:00N 27°54' W 082°26'0 0.0
2017-Nov-10 17:30N 27°54' W 082°26'0 0.1
2017-Nov-10 17:00N 27°54' W 082°26'0 0.0
2017-Nov-10 16:30N 27°54' W 082°26'0 0.1
2017-Nov-10 16:00N 27°54' W 082°26'0 0.0
2017-Nov-10 15:31N 27°54' W 082°26'0 0.0
2017-Nov-10 15:00N 27°54' W 082°26'0 0.0
2017-Nov-10 13:40N 27°54' W 082°26'0 0.0
2017-Nov-10 13:31N 27°54' W 082°26'0 0.0
2017-Nov-10 13:01N 27°54' W 082°26'0 0.0
2017-Nov-10 12:30N 27°54' W 082°26'0 0.0
2017-Nov-10 12:00N 27°54' W 082°26'0 0.0
2017-Nov-10 11:30N 27°54' W 082°26'0 0.0
2017-Nov-10 11:00N 27°54' W 082°26'0 0.0
2017-Nov-10 10:30N 27°54' W 082°26'0 0.0
2017-Nov-10 10:00N 27°54' W 082°26'0 0.0
2017-Nov-10 09:30N 27°54' W 082°26'0 0.0
2017-Nov-10 09:00N 27°54' W 082°26'0 0.0
2017-Nov-10 08:31N 27°54' W 082°26'0 0.0
2017-Nov-10 08:00N 27°54' W 082°26'0 0.0
2017-Nov-10 07:30N 27°54' W 082°26'0 0.0
2017-Nov-10 07:01N 27°54' W 082°26'0 0.0
2017-Nov-10 06:30N 27°54' W 082°26'0 0.0
2017-Nov-10 06:00N 27°54' W 082°26'0 0.0
2017-Nov-10 05:30N 27°54' W 082°26'0 0.0
2017-Nov-10 05:01N 27°54' W 082°26'0 0.0
2017-Nov-10 04:30N 27°54' W 082°26'0 0.0
2017-Nov-10 04:00N 27°54' W 082°26'0 0.0
2017-Nov-10 03:30N 27°54' W 082°26'0 0.0
2017-Nov-10 03:01N 27°54' W 082°26'0 0.1
2017-Nov-10 02:31N 27°54' W 082°26'0 0.0
2017-Nov-10 02:00N 27°54' W 082°26'1 1.5
2017-Nov-10 01:30N 27°54' W 082°26'4 6.2
2017-Nov-10 00:52N 27°50' W 082°27'1 0.1
2017-Nov-09 10:11N 27°49' W 082°26'1 6.8
2017-Nov-09 09:59N 27°50' W 082°27'1 2.2
2017-Nov-09 09:30N 27°51' W 082°27'3 6.3
2017-Nov-09 09:00N 27°54' W 082°26'1 1.2
2017-Nov-09 08:30N 27°54' W 082°26'3 5.3
2017-Nov-09 08:00N 27°52' W 082°27'1 2.5
2017-Nov-09 07:30N 27°51' W 082°26'0 0.2
2017-Nov-09 07:00N 27°51' W 082°26'2 3.1
2017-Nov-09 06:30N 27°52' W 082°27'2 4.6
2017-Nov-09 06:01N 27°54' W 082°26'3 5.2
2017-Nov-09 05:30N 27°52' W 082°27'1 2.7
2017-Nov-09 05:01N 27°51' W 082°26'1 1.5
2017-Nov-09 04:30N 27°51' W 082°27'3 5.7
2017-Nov-09 04:00N 27°54' W 082°26'1 1.3
2017-Nov-09 03:30N 27°54' W 082°26'1 1.7
2017-Nov-09 03:00N 27°54' W 082°26'3 6.0
2017-Nov-09 02:30N 27°51' W 082°27'0 0.2
2017-Nov-09 02:00N 27°51' W 082°27'3 5.2
2017-Nov-09 01:30N 27°53' W 082°26'1 2.6
2017-Nov-09 01:00N 27°54' W 082°26'0 0.2
2017-Nov-09 00:31N 27°54' W 082°26'2 3.1
2017-Nov-09 00:00N 27°53' W 082°26'4 7.6
2017-Nov-08 23:26N 27°49' W 082°27'1 0.5
2017-Nov-08 22:00N 27°49' W 082°26'3 4.9
2017-Nov-08 21:29N 27°48' W 082°29'  

Dump ship's entire track history